Time;durP1;ratioP1;P1;durP2;ratioP2;P2;SDS_P1;SDS_P2;PMS_P1;PMS_P2;Temp;Humidity;BMP_temperature;BMP_pressure;BME280_temperature;BME280_humidity;BME280_pressure;Samples;Min_cycle;Max_cycle;Signal;HPM_P1;HPM_P2
2021/01/19 00:01:19;;;;;;;11.82;3.20;;;;;;;4.54;100.00;101709.16;5204789;28;20052;-68
2021/01/19 00:03:49;;;;;;;16.35;2.90;;;;;;;4.44;100.00;101723.19;5187417;28;20068;-68
2021/01/19 00:06:19;;;;;;;15.88;4.90;;;;;;;4.33;100.00;101722.09;5184289;28;20422;-68
2021/01/19 00:08:50;;;;;;;10.63;2.80;;;;;;;4.33;100.00;101721.25;5199840;28;20025;-68
2021/01/19 00:11:20;;;;;;;15.25;2.55;;;;;;;4.29;100.00;101719.75;5192771;28;20419;-68
2021/01/19 00:13:51;;;;;;;9.93;3.13;;;;;;;4.19;100.00;101711.56;5182876;28;20025;-68
2021/01/19 00:16:22;;;;;;;10.95;2.92;;;;;;;4.18;100.00;101715.19;5196164;28;20030;-68
2021/01/19 00:18:52;;;;;;;14.48;3.28;;;;;;;4.19;100.00;101705.41;5172174;28;20032;-68
2021/01/19 00:21:23;;;;;;;10.55;2.60;;;;;;;4.16;100.00;101699.31;5184460;28;20026;-68
2021/01/19 00:23:53;;;;;;;15.60;4.22;;;;;;;4.08;100.00;101700.81;5162146;28;20030;-68
2021/01/19 00:26:23;;;;;;;9.05;2.55;;;;;;;4.02;100.00;101683.50;5178024;28;20036;-68
2021/01/19 00:28:54;;;;;;;17.08;2.88;;;;;;;3.99;100.00;101686.34;5183110;28;20029;-68
2021/01/19 00:31:25;;;;;;;16.30;2.90;;;;;;;3.89;100.00;101680.81;5197267;28;20045;-68
2021/01/19 00:33:55;;;;;;;18.17;4.45;;;;;;;3.92;100.00;101684.22;5182707;28;20032;-68
2021/01/19 00:36:26;;;;;;;17.88;3.17;;;;;;;3.83;100.00;101675.06;5183544;28;20447;-68
2021/01/19 00:38:56;;;;;;;14.73;3.30;;;;;;;3.79;100.00;101671.75;5180589;28;20037;-68
2021/01/19 00:41:27;;;;;;;12.63;4.20;;;;;;;3.68;100.00;101670.78;5201671;28;20028;-67
2021/01/19 00:43:57;;;;;;;8.55;2.80;;;;;;;3.63;100.00;101657.81;5190512;28;20108;-68
2021/01/19 00:46:27;;;;;;;16.92;3.58;;;;;;;3.65;100.00;101645.28;5189799;28;20025;-68
2021/01/19 00:48:58;;;;;;;8.60;2.42;;;;;;;3.59;100.00;101637.72;5203459;28;20041;-67
2021/01/19 00:51:35;;;;;;;23.38;4.13;;;;;;;3.61;100.00;101639.34;5204148;28;20540;-68
2021/01/19 00:54:06;;;;;;;10.65;2.92;;;;;;;3.60;100.00;101634.97;5202629;28;20025;-68
2021/01/19 00:56:39;;;;;;;15.50;3.55;;;;;;;3.66;100.00;101616.94;5194069;28;20400;-67
2021/01/19 00:59:10;;;;;;;17.30;4.88;;;;;;;3.61;100.00;101611.94;5186986;28;20434;-68
2021/01/19 01:01:48;;;;;;;17.85;3.83;;;;;;;3.62;100.00;101605.69;5204023;28;20017;-68
2021/01/19 01:04:19;;;;;;;17.17;3.63;;;;;;;3.58;100.00;101605.03;5201791;28;20171;-68
2021/01/19 01:06:55;;;;;;;16.13;3.53;;;;;;;3.52;100.00;101592.19;5203324;28;20550;-68
2021/01/19 01:09:25;;;;;;;15.40;5.05;;;;;;;3.49;100.00;101587.09;5203257;28;20033;-68
2021/01/19 01:11:56;;;;;;;13.82;3.70;;;;;;;3.45;100.00;101587.38;5203416;28;20025;-67
2021/01/19 01:14:26;;;;;;;16.83;3.88;;;;;;;3.47;100.00;101574.88;5202228;28;20038;-68
2021/01/19 01:16:57;;;;;;;18.77;4.32;;;;;;;3.43;100.00;101562.78;5185413;28;20024;-68
2021/01/19 01:19:27;;;;;;;11.30;4.55;;;;;;;3.42;100.00;101555.78;5182643;28;20053;-68
2021/01/19 01:22:00;;;;;;;10.57;4.28;;;;;;;3.38;100.00;101561.28;5187682;28;20025;-68
2021/01/19 01:24:30;;;;;;;27.95;5.63;;;;;;;3.47;100.00;101549.22;5177527;28;20070;-68
2021/01/19 01:27:02;;;;;;;18.80;4.35;;;;;;;3.43;100.00;101557.47;5181875;28;20103;-68
2021/01/19 01:29:32;;;;;;;17.83;4.82;;;;;;;3.48;100.00;101553.56;5181760;28;20041;-68
2021/01/19 01:32:04;;;;;;;28.67;4.65;;;;;;;3.52;100.00;101548.91;5182918;28;20021;-68
2021/01/19 01:34:34;;;;;;;20.70;4.55;;;;;;;3.63;100.00;101533.94;5195890;28;20034;-68
2021/01/19 01:37:05;;;;;;;17.35;4.28;;;;;;;3.73;100.00;101538.63;5203131;28;20038;-68
2021/01/19 01:39:35;;;;;;;18.40;4.85;;;;;;;3.78;100.00;101539.16;5182788;28;20044;-67
2021/01/19 01:42:14;;;;;;;22.60;5.05;;;;;;;3.90;100.00;101533.84;5202579;28;20503;-67
2021/01/19 01:44:44;;;;;;;14.85;4.63;;;;;;;3.89;100.00;101526.84;5195400;28;20026;-68
2021/01/19 01:47:21;;;;;;;24.13;4.85;;;;;;;3.92;100.00;101516.97;5182578;28;20028;-68
2021/01/19 01:49:53;;;;;;;15.50;4.63;;;;;;;4.04;100.00;101524.06;5181953;28;20026;-68
2021/01/19 01:52:24;;;;;;;19.73;5.18;;;;;;;4.06;100.00;101519.50;5182057;28;20036;-68
2021/01/19 01:54:54;;;;;;;15.43;4.93;;;;;;;4.07;100.00;101515.91;5181352;28;20030;-68
2021/01/19 01:57:25;;;;;;;27.38;5.38;;;;;;;4.10;100.00;101503.22;5185070;28;20487;-68
2021/01/19 01:59:59;;;;;;;14.43;4.88;;;;;;;4.18;100.00;101491.25;5202671;28;20052;-68
2021/01/19 02:02:30;;;;;;;20.03;5.10;;;;;;;4.17;100.00;101477.13;5202072;28;20090;-68
2021/01/19 02:05:01;;;;;;;24.52;5.10;;;;;;;4.16;100.00;101468.28;5189717;28;20363;-68
2021/01/19 02:07:40;;;;;;;20.42;5.30;;;;;;;4.21;100.00;101469.75;5182035;28;20029;-68
2021/01/19 02:10:30;;;;;;;26.35;6.18;;;;;;;4.26;100.00;101470.28;5181844;28;20100;-68
2021/01/19 02:13:12;;;;;;;17.80;5.47;;;;;;;4.26;100.00;101459.66;5181601;28;20117;-68
2021/01/19 02:15:56;;;;;;;17.45;4.78;;;;;;;4.22;100.00;101453.72;5181485;28;20029;-68
2021/01/19 02:18:44;;;;;;;21.20;6.25;;;;;;;4.29;100.00;101443.50;5181962;28;20030;-67
2021/01/19 02:21:38;;;;;;;19.88;5.78;;;;;;;4.32;100.00;101443.28;5180134;28;20053;-68
2021/01/19 02:24:13;;;;;;;25.70;7.67;;;;;;;4.30;100.00;101438.06;5171886;28;20053;-67
2021/01/19 02:26:57;;;;;;;25.42;5.63;;;;;;;4.30;100.00;101421.28;5178369;28;20029;-68
2021/01/19 02:29:48;;;;;;;18.92;6.45;;;;;;;4.30;100.00;101416.81;5182168;28;20462;-68
2021/01/19 02:32:29;;;;;;;16.70;5.22;;;;;;;4.36;100.00;101413.72;5181259;28;20022;-68
2021/01/19 02:35:13;;;;;;;18.98;6.38;;;;;;;4.32;100.00;101404.28;5200508;28;20029;-68
2021/01/19 02:37:55;;;;;;;33.42;6.65;;;;;;;4.35;100.00;101404.03;5184923;28;20030;-68
2021/01/19 02:40:26;;;;;;;23.63;6.43;;;;;;;4.29;100.00;101395.69;5181051;28;20050;-67
2021/01/19 02:43:23;;;;;;;16.92;5.65;;;;;;;4.37;100.00;101380.06;5180673;28;20104;-68
2021/01/19 02:45:55;;;;;;;17.02;5.63;;;;;;;4.37;100.00;101372.06;5196142;28;20022;-67
2021/01/19 02:48:26;;;;;;;15.48;5.65;;;;;;;4.34;100.00;101375.78;5202075;28;20021;-67
2021/01/19 02:50:57;;;;;;;18.95;6.85;;;;;;;4.28;100.00;101368.28;5201938;28;20547;-68
2021/01/19 02:53:28;;;;;;;25.42;7.15;;;;;;;4.28;100.00;101362.97;5201568;28;20109;-68
2021/01/19 02:56:03;;;;;;;22.70;6.00;;;;;;;4.26;100.00;101356.91;5201688;28;20080;-68
2021/01/19 02:58:44;;;;;;;16.65;5.80;;;;;;;4.24;100.00;101339.41;5189733;28;20037;-68
2021/01/19 03:01:19;;;;;;;22.45;8.48;;;;;;;4.14;100.00;101339.22;5180831;28;20021;-67
2021/01/19 03:03:51;;;;;;;18.25;5.28;;;;;;;4.18;100.00;101331.91;5194005;28;20021;-67
2021/01/19 03:06:29;;;;;;;21.48;6.63;;;;;;;4.10;100.00;101329.78;5181401;28;20257;-67
2021/01/19 03:09:01;;;;;;;17.27;6.03;;;;;;;4.11;100.00;101320.84;5199554;28;20026;-67
2021/01/19 03:11:35;;;;;;;21.80;6.18;;;;;;;4.10;100.00;101312.03;5201632;28;20056;-67
2021/01/19 03:14:06;;;;;;;24.05;6.68;;;;;;;4.13;100.00;101311.84;5201060;28;20038;-67
2021/01/19 03:16:37;;;;;;;29.13;8.13;;;;;;;4.15;100.00;101301.09;5200882;28;20026;-67
2021/01/19 03:19:08;;;;;;;20.33;5.80;;;;;;;4.18;100.00;101292.91;5181542;28;20026;-67
2021/01/19 03:21:38;;;;;;;15.52;6.47;;;;;;;4.15;100.00;101285.16;5181060;28;20022;-67
2021/01/19 03:24:09;;;;;;;16.00;6.72;;;;;;;4.10;100.00;101276.69;5179578;28;20026;-67
2021/01/19 03:26:40;;;;;;;19.48;6.60;;;;;;;4.08;100.00;101278.63;5181267;28;20208;-67
2021/01/19 03:29:10;;;;;;;20.52;5.75;;;;;;;4.11;100.00;101276.56;5181481;28;20025;-67
2021/01/19 03:31:41;;;;;;;17.50;6.20;;;;;;;4.11;100.00;101263.28;5181009;28;20109;-67
2021/01/19 03:34:11;;;;;;;13.02;5.65;;;;;;;4.18;100.00;101263.69;5179073;28;20030;-68
2021/01/19 03:36:42;;;;;;;16.40;5.93;;;;;;;4.13;100.00;101247.25;5177164;28;20037;-68
2021/01/19 03:39:12;;;;;;;20.80;5.75;;;;;;;4.12;100.00;101246.41;5177505;28;20026;-67
2021/01/19 03:41:43;;;;;;;15.40;5.70;;;;;;;4.13;100.00;101237.47;5181279;28;20029;-67
2021/01/19 03:44:13;;;;;;;20.65;6.25;;;;;;;4.13;100.00;101221.56;5194375;28;20499;-67
2021/01/19 03:46:44;;;;;;;11.65;5.35;;;;;;;4.18;100.00;101223.84;5204697;28;20403;-68
2021/01/19 03:49:14;;;;;;;10.27;4.40;;;;;;;4.14;100.00;101209.13;5204879;28;20033;-67
2021/01/19 03:51:45;;;;;;;19.65;5.70;;;;;;;4.15;100.00;101209.00;5205420;28;20026;-67
2021/01/19 03:54:15;;;;;;;15.10;5.57;;;;;;;4.13;100.00;101205.63;5204048;28;20502;-67
2021/01/19 03:56:47;;;;;;;19.65;5.53;;;;;;;4.22;100.00;101197.91;5204989;28;20025;-67
2021/01/19 03:59:17;;;;;;;11.13;4.78;;;;;;;4.13;100.00;101199.47;5204258;28;20083;-67
2021/01/19 04:01:49;;;;;;;14.07;5.20;;;;;;;4.15;100.00;101192.22;5192690;28;20065;-67
2021/01/19 04:04:19;;;;;;;10.18;4.93;;;;;;;4.15;100.00;101187.75;5203473;28;20036;-67
2021/01/19 04:06:50;;;;;;;10.95;6.07;;;;;;;4.18;100.00;101169.91;5190757;28;20021;-67
2021/01/19 04:09:20;;;;;;;10.40;4.88;;;;;;;4.22;100.00;101174.88;5184652;28;20022;-67
2021/01/19 04:11:51;;;;;;;9.95;4.45;;;;;;;4.28;100.00;101169.06;5198841;28;20033;-68
2021/01/19 04:14:21;;;;;;;10.05;4.20;;;;;;;4.31;100.00;101168.81;5203833;28;20026;-68
2021/01/19 04:16:52;;;;;;;13.98;4.95;;;;;;;4.36;100.00;101165.81;5199468;28;20026;-68
2021/01/19 04:19:22;;;;;;;9.70;4.78;;;;;;;4.41;100.00;101155.69;5184048;28;20061;-68
2021/01/19 04:21:52;;;;;;;8.73;4.20;;;;;;;4.42;100.00;101144.13;5191545;28;20021;-67
2021/01/19 04:24:23;;;;;;;11.85;4.93;;;;;;;4.39;100.00;101123.94;5179821;28;20033;-68
2021/01/19 04:26:53;;;;;;;19.75;5.47;;;;;;;4.44;100.00;101118.25;5182136;28;20108;-67
2021/01/19 04:29:24;;;;;;;17.63;5.47;;;;;;;4.43;100.00;101118.38;5183717;28;20036;-68
2021/01/19 04:31:54;;;;;;;9.43;4.43;;;;;;;4.41;100.00;101108.72;5184020;28;20021;-67
2021/01/19 04:34:25;;;;;;;15.25;5.43;;;;;;;4.48;100.00;101093.16;5183134;28;20041;-68
2021/01/19 04:36:55;;;;;;;16.88;5.22;;;;;;;4.47;100.00;101077.31;5203849;28;20032;-67
2021/01/19 04:39:26;;;;;;;16.98;4.88;;;;;;;4.53;100.00;101080.34;5184126;28;20052;-67
2021/01/19 04:41:56;;;;;;;13.27;5.03;;;;;;;4.55;100.00;101075.75;5204353;28;20021;-67
2021/01/19 04:44:27;;;;;;;20.00;5.47;;;;;;;4.59;100.00;101063.06;5187335;28;20122;-68
2021/01/19 04:46:58;;;;;;;18.17;5.13;;;;;;;4.66;100.00;101056.28;5193984;28;20076;-67
2021/01/19 04:49:30;;;;;;;18.02;4.97;;;;;;;4.67;100.00;101047.38;5185546;28;20454;-68
2021/01/19 04:52:04;;;;;;;8.48;5.28;;;;;;;4.70;100.00;101055.06;5195534;28;20025;-67
2021/01/19 04:54:57;;;;;;;14.45;5.38;;;;;;;4.74;100.00;101055.69;5202677;28;20112;-68
2021/01/19 04:57:30;;;;;;;18.00;4.82;;;;;;;4.69;100.00;101042.75;5190172;28;20464;-67
2021/01/19 05:00:09;;;;;;;16.25;5.18;;;;;;;4.72;100.00;101041.66;5203118;28;20033;-68
2021/01/19 05:02:41;;;;;;;18.85;4.80;;;;;;;4.76;100.00;101037.78;5203610;28;20474;-67
2021/01/19 05:05:31;;;;;;;13.05;4.60;;;;;;;4.75;100.00;101031.63;5202814;28;20088;-67
2021/01/19 05:08:02;;;;;;;24.58;5.50;;;;;;;4.69;100.00;101021.50;5203773;28;20036;-67
2021/01/19 05:10:35;;;;;;;16.00;4.60;;;;;;;4.71;100.00;101008.06;5203381;28;20037;-67
2021/01/19 05:13:13;;;;;;;18.73;5.13;;;;;;;4.73;100.00;101007.00;5203315;28;20380;-67
2021/01/19 05:15:45;;;;;;;15.93;5.45;;;;;;;4.73;100.00;100998.19;5196267;28;20377;-67
2021/01/19 05:18:16;;;;;;;12.40;4.80;;;;;;;4.72;100.00;101005.31;5171174;28;20525;-67
2021/01/19 05:20:50;;;;;;;19.13;5.05;;;;;;;4.71;100.00;100992.97;5202902;28;20108;-66
2021/01/19 05:23:21;;;;;;;15.07;5.70;;;;;;;4.66;100.00;100995.16;5197092;28;20053;-66
2021/01/19 05:25:59;;;;;;;23.80;5.13;;;;;;;4.72;100.00;100999.13;5172022;28;20480;-67
2021/01/19 05:28:35;;;;;;;16.42;4.88;;;;;;;4.76;100.00;100996.09;5201250;28;20029;-67
2021/01/19 05:31:18;;;;;;;12.85;4.30;;;;;;;4.77;100.00;100997.81;5202667;28;20033;-67
2021/01/19 05:33:53;;;;;;;16.98;5.00;;;;;;;4.75;100.00;100989.09;5170283;28;20060;-68
2021/01/19 05:36:26;;;;;;;11.80;4.97;;;;;;;4.76;100.00;100981.97;5182533;28;20039;-67
2021/01/19 05:38:57;;;;;;;17.00;5.38;;;;;;;4.73;100.00;100983.09;5190538;28;20025;-67
2021/01/19 05:41:35;;;;;;;17.90;5.00;;;;;;;4.71;100.00;100979.69;5184731;28;20022;-67
2021/01/19 05:44:15;;;;;;;23.92;4.65;;;;;;;4.70;100.00;100971.84;5181915;28;20126;-67
2021/01/19 05:46:49;;;;;;;15.13;4.22;;;;;;;4.71;100.00;100969.06;5203531;28;20029;-67
2021/01/19 05:49:22;;;;;;;11.70;4.65;;;;;;;4.74;100.00;100971.47;5186972;28;20026;-67
2021/01/19 05:52:01;;;;;;;16.85;4.93;;;;;;;4.72;100.00;100957.47;5182178;28;20025;-68
2021/01/19 05:54:34;;;;;;;15.93;4.32;;;;;;;4.73;100.00;100956.50;5181456;28;20120;-67
2021/01/19 05:57:08;;;;;;;18.70;4.63;;;;;;;4.65;100.00;100957.13;5195491;28;20022;-67
2021/01/19 05:59:44;;;;;;;12.43;4.00;;;;;;;4.67;100.00;100941.06;5202700;28;20402;-67
2021/01/19 06:02:17;;;;;;;14.65;4.47;;;;;;;4.66;100.00;100942.00;5200057;28;20029;-67
2021/01/19 06:04:50;;;;;;;15.73;4.40;;;;;;;4.61;100.00;100933.56;5190842;28;20037;-67
2021/01/19 06:07:22;;;;;;;17.58;3.85;;;;;;;4.61;100.00;100926.44;5202764;28;20022;-67
2021/01/19 06:09:53;;;;;;;11.65;3.83;;;;;;;4.66;100.00;100915.44;5190546;28;20388;-67
2021/01/19 06:12:35;;;;;;;12.80;4.25;;;;;;;4.60;100.00;100921.25;5194833;28;20021;-67
2021/01/19 06:15:07;;;;;;;22.83;3.78;;;;;;;4.64;100.00;100910.25;5181246;28;20029;-67
2021/01/19 06:17:38;;;;;;;9.65;3.63;;;;;;;4.64;100.00;100904.09;5193332;28;20029;-67
2021/01/19 06:20:08;;;;;;;9.65;3.38;;;;;;;4.68;100.00;100897.56;5197286;28;20022;-67
2021/01/19 06:22:39;;;;;;;7.72;3.63;;;;;;;4.63;100.00;100897.09;5193371;28;20450;-67
2021/01/19 06:25:12;;;;;;;9.45;3.85;;;;;;;4.69;100.00;100899.25;5171643;28;20383;-67
2021/01/19 06:27:43;;;;;;;20.48;4.35;;;;;;;4.63;100.00;100894.44;5202351;28;20086;-67
2021/01/19 06:30:14;;;;;;;8.88;2.78;;;;;;;4.65;100.00;100879.22;5202227;28;20017;-67
2021/01/19 06:32:46;;;;;;;15.10;4.03;;;;;;;4.65;100.00;100882.72;5201813;28;20040;-67
2021/01/19 06:35:19;;;;;;;15.35;3.42;;;;;;;4.63;100.00;100879.34;5194273;28;20411;-67
2021/01/19 06:37:52;;;;;;;15.15;3.75;;;;;;;4.71;100.00;100868.06;5188085;28;20058;-67
2021/01/19 06:40:24;;;;;;;8.15;3.50;;;;;;;4.72;100.00;100866.25;5191004;28;20030;-67
2021/01/19 06:43:00;;;;;;;10.70;3.58;;;;;;;4.67;100.00;100870.16;5201417;28;20041;-67
2021/01/19 06:45:32;;;;;;;10.40;3.40;;;;;;;4.65;100.00;100864.09;5202107;28;20017;-67
2021/01/19 06:48:04;;;;;;;12.10;3.63;;;;;;;4.65;100.00;100855.28;5201719;28;20032;-67
2021/01/19 06:50:36;;;;;;;13.02;3.05;;;;;;;4.66;100.00;100833.91;5202293;28;20029;-67
2021/01/19 06:53:14;;;;;;;6.15;2.33;;;;;;;4.67;100.00;100832.94;5201530;28;20079;-67
2021/01/19 06:55:55;;;;;;;9.43;3.55;;;;;;;4.73;100.00;100847.53;5201722;28;20072;-67
2021/01/19 06:58:47;;;;;;;12.10;3.00;;;;;;;4.73;100.00;100841.38;5190991;28;20022;-66
2021/01/19 07:01:21;;;;;;;9.00;2.80;;;;;;;4.67;100.00;100814.34;5169130;28;20483;-66
2021/01/19 07:04:03;;;;;;;13.82;2.88;;;;;;;4.78;100.00;100818.75;5182936;28;20057;-66
2021/01/19 07:07:03;;;;;;;20.23;4.32;;;;;;;4.79;100.00;100803.66;5201820;28;20474;-67
2021/01/19 07:10:07;;;;;;;7.97;3.13;;;;;;;4.84;100.00;100810.25;5191614;28;20056;-67
2021/01/19 07:12:54;;;;;;;13.02;2.75;;;;;;;4.81;100.00;100838.91;5180873;28;20030;-66
2021/01/19 07:15:45;;;;;;;10.25;2.80;;;;;;;4.80;100.00;100787.56;5181273;28;20516;-66
2021/01/19 07:18:31;;;;;;;14.23;3.65;;;;;;;4.81;100.00;100829.09;5168259;28;20105;-66
2021/01/19 07:21:04;;;;;;;12.45;5.10;;;;;;;4.86;100.00;100836.69;5184113;28;20025;-66
2021/01/19 07:23:44;;;;;;;8.43;2.53;;;;;;;4.88;100.00;100792.25;5178662;28;20022;-66
2021/01/19 07:26:18;;;;;;;12.02;2.85;;;;;;;4.89;100.00;100786.78;5178235;28;20041;-66
2021/01/19 07:28:50;;;;;;;7.45;2.28;;;;;;;4.94;100.00;100802.34;5192809;28;20091;-66
2021/01/19 07:31:21;;;;;;;11.20;2.85;;;;;;;4.91;100.00;100819.38;5203951;28;20021;-66
2021/01/19 07:33:55;;;;;;;8.45;2.75;;;;;;;4.91;100.00;100792.78;5182730;28;20037;-66
2021/01/19 07:36:27;;;;;;;12.48;2.55;;;;;;;4.96;100.00;100804.84;5198491;28;20018;-67
2021/01/19 07:38:58;;;;;;;10.15;2.60;;;;;;;5.08;100.00;100770.09;5181479;28;20029;-66
2021/01/19 07:41:30;;;;;;;6.07;2.38;;;;;;;5.03;100.00;100787.44;5184918;28;20025;-67
2021/01/19 07:44:01;;;;;;;5.68;2.25;;;;;;;5.01;100.00;100778.72;5183803;28;20030;-67
2021/01/19 07:46:32;;;;;;;6.35;2.50;;;;;;;5.01;100.00;100770.75;5184475;28;20028;-67
2021/01/19 07:49:06;;;;;;;4.70;2.33;;;;;;;5.11;100.00;100710.47;5198175;28;20480;-66
2021/01/19 07:51:42;;;;;;;11.95;3.13;;;;;;;5.11;100.00;100782.28;5175370;28;20022;-66
2021/01/19 07:54:28;;;;;;;7.10;2.60;;;;;;;5.09;100.00;100773.59;5169671;28;20118;-66
2021/01/19 07:57:09;;;;;;;9.40;2.70;;;;;;;5.10;100.00;100785.91;5182703;28;20385;-66
2021/01/19 07:59:41;;;;;;;7.85;2.50;;;;;;;5.17;100.00;100773.75;5190877;28;20605;-66
2021/01/19 08:02:23;;;;;;;12.55;2.90;;;;;;;5.15;100.00;100765.09;5202077;28;20112;-67
2021/01/19 08:05:00;;;;;;;7.50;2.78;;;;;;;5.19;100.00;100758.53;5182971;28;20100;-66
2021/01/19 08:07:39;;;;;;;5.45;2.55;;;;;;;5.21;100.00;100767.19;5201099;28;20029;-67
2021/01/19 08:10:24;;;;;;;7.13;2.83;;;;;;;5.23;100.00;100762.59;5190034;28;20052;-66
2021/01/19 08:12:57;;;;;;;6.63;3.50;;;;;;;5.24;100.00;100758.13;5182694;28;20038;-66
2021/01/19 08:15:31;;;;;;;8.20;3.33;;;;;;;5.26;100.00;100764.97;5182719;28;20041;-66
2021/01/19 08:18:04;;;;;;;5.97;2.40;;;;;;;5.33;100.00;100760.81;5182536;28;20037;-66
2021/01/19 08:20:35;;;;;;;8.13;2.70;;;;;;;5.35;100.00;100750.88;5183135;28;20794;-66
2021/01/19 08:23:14;;;;;;;7.57;2.40;;;;;;;5.32;100.00;100740.53;5181193;28;20034;-66
2021/01/19 08:25:45;;;;;;;7.47;2.05;;;;;;;5.35;100.00;100747.38;5180777;28;20027;-66
2021/01/19 08:28:16;;;;;;;6.03;2.42;;;;;;;5.37;100.00;100746.28;5187625;28;20326;-67
2021/01/19 08:30:47;;;;;;;4.88;1.98;;;;;;;5.46;100.00;100756.09;5193413;28;20365;-66
2021/01/19 08:33:18;;;;;;;5.80;2.65;;;;;;;5.52;100.00;100745.88;5199337;28;20462;-66
2021/01/19 08:35:50;;;;;;;6.85;1.90;;;;;;;5.51;100.00;100761.00;5201920;28;20026;-66
2021/01/19 08:38:23;;;;;;;10.00;1.88;;;;;;;5.57;100.00;100757.81;5180040;28;20052;-66
2021/01/19 08:40:53;;;;;;;5.00;1.83;;;;;;;5.59;100.00;100757.69;5195805;28;20086;-66
2021/01/19 08:43:24;;;;;;;6.90;1.88;;;;;;;5.60;100.00;100762.84;5176430;28;20044;-66
2021/01/19 08:45:57;;;;;;;3.60;1.80;;;;;;;5.65;100.00;100743.81;5202078;28;20028;-66
2021/01/19 08:48:28;;;;;;;3.30;1.83;;;;;;;5.67;100.00;100763.16;5182355;28;20072;-66
2021/01/19 08:50:58;;;;;;;5.85;2.22;;;;;;;5.71;100.00;100753.91;5184787;28;21033;-66
2021/01/19 08:53:29;;;;;;;7.75;2.63;;;;;;;5.71;100.00;100760.06;5202709;28;20025;-66
2021/01/19 08:55:59;;;;;;;8.93;2.53;;;;;;;5.76;100.00;100758.81;5203028;28;20351;-66
2021/01/19 08:58:30;;;;;;;4.35;2.15;;;;;;;5.79;100.00;100762.06;5191490;28;20037;-67
2021/01/19 09:01:07;;;;;;;4.03;2.15;;;;;;;5.85;100.00;100742.03;5187156;28;20025;-66
2021/01/19 09:03:37;;;;;;;6.07;2.33;;;;;;;5.90;100.00;100753.13;5202108;28;20076;-66
2021/01/19 09:06:09;;;;;;;6.80;2.15;;;;;;;5.92;100.00;100759.16;5196106;28;20052;-66
2021/01/19 09:08:41;;;;;;;6.68;2.17;;;;;;;5.93;100.00;100753.72;5181758;28;20056;-66
2021/01/19 09:11:12;;;;;;;4.13;2.17;;;;;;;5.91;100.00;100739.69;5182129;28;20033;-66
2021/01/19 09:13:44;;;;;;;6.40;1.88;;;;;;;5.94;100.00;100760.72;5192922;28;20037;-66
2021/01/19 09:16:23;;;;;;;4.72;2.42;;;;;;;6.01;100.00;100752.16;5202389;28;20065;-66
2021/01/19 09:18:55;;;;;;;5.18;1.98;;;;;;;6.03;100.00;100751.06;5181902;28;20076;-66
2021/01/19 09:21:27;;;;;;;9.75;2.30;;;;;;;6.06;100.00;100768.56;5181987;28;20117;-67
2021/01/19 09:23:57;;;;;;;7.10;2.15;;;;;;;6.10;100.00;100757.50;5193038;28;20034;-67
2021/01/19 09:26:35;;;;;;;8.82;2.80;;;;;;;6.13;100.00;100753.75;5179815;28;20022;-67
2021/01/19 09:29:06;;;;;;;11.70;3.47;;;;;;;6.15;100.00;100749.94;5191359;28;20026;-66
2021/01/19 09:31:37;;;;;;;7.85;2.25;;;;;;;6.23;100.00;100746.59;5202095;28;20387;-67
2021/01/19 09:34:11;;;;;;;5.97;2.05;;;;;;;6.31;100.00;100767.19;5190273;28;20515;-67
2021/01/19 09:36:43;;;;;;;5.22;2.42;;;;;;;6.31;100.00;100746.69;5181121;28;20034;-66
2021/01/19 09:39:22;;;;;;;4.13;2.33;;;;;;;6.32;100.00;100759.03;5180970;28;20029;-67
2021/01/19 09:41:54;;;;;;;8.50;3.38;;;;;;;6.36;100.00;100755.13;5202149;28;20029;-67
2021/01/19 09:44:26;;;;;;;8.40;3.08;;;;;;;6.39;100.00;100757.50;5198107;28;20222;-67
2021/01/19 09:47:02;;;;;;;7.43;3.40;;;;;;;6.52;100.00;100765.19;5191157;28;20439;-67
2021/01/19 09:49:35;;;;;;;9.43;2.63;;;;;;;6.52;100.00;100767.03;5195953;28;20519;-67
2021/01/19 09:52:09;;;;;;;5.07;2.63;;;;;;;6.58;100.00;100769.16;5181519;28;20492;-67
2021/01/19 09:54:40;;;;;;;3.33;2.03;;;;;;;6.70;100.00;100754.66;5200647;28;20030;-67
2021/01/19 09:57:10;;;;;;;7.05;2.25;;;;;;;6.74;100.00;100764.06;5199676;28;20044;-67
2021/01/19 09:59:41;;;;;;;6.32;2.60;;;;;;;6.82;100.00;100760.66;5189215;28;20017;-67
2021/01/19 10:02:11;;;;;;;5.00;2.13;;;;;;;6.89;100.00;100772.44;5185396;28;20064;-67
2021/01/19 10:04:42;;;;;;;4.28;1.95;;;;;;;6.96;100.00;100762.88;5180526;28;20029;-67
2021/01/19 10:07:12;;;;;;;5.97;1.92;;;;;;;7.02;100.00;100770.28;5180426;28;20014;-67
2021/01/19 10:09:43;;;;;;;7.32;3.88;;;;;;;7.04;100.00;100771.00;5180914;28;20018;-67
2021/01/19 10:12:18;;;;;;;4.47;2.05;;;;;;;7.06;100.00;100773.50;5194607;28;20045;-67
2021/01/19 10:14:49;;;;;;;;;;;;;;;7.15;100.00;100768.16;5180811;28;20029;-67
2021/01/19 10:17:31;;;;;;;8.13;2.30;;;;;;;7.18;100.00;100767.88;5185849;28;19909;-67
2021/01/19 10:20:12;;;;;;;5.93;1.80;;;;;;;7.26;100.00;100775.13;5199438;28;20107;-67
2021/01/19 10:22:44;;;;;;;3.33;1.92;;;;;;;7.26;100.00;100762.63;5189548;28;20249;-67
2021/01/19 10:25:27;;;;;;;8.20;3.65;;;;;;;7.38;100.00;100765.09;5168055;28;20045;-67
2021/01/19 10:28:00;;;;;;;2.63;1.77;;;;;;;7.42;100.00;100771.81;5180560;28;20058;-67
2021/01/19 10:30:33;;;;;;;4.45;2.00;;;;;;;7.45;100.00;100774.22;5193130;28;20037;-67
2021/01/19 10:33:04;;;;;;;3.63;2.00;;;;;;;7.49;100.00;100770.25;5181456;28;20029;-68
2021/01/19 10:35:37;;;;;;;4.88;2.05;;;;;;;7.55;100.00;100758.97;5197995;28;20029;-67
2021/01/19 10:38:08;;;;;;;4.88;1.75;;;;;;;7.58;100.00;100766.72;5180936;28;20022;-67
2021/01/19 10:40:45;;;;;;;5.03;2.05;;;;;;;7.62;100.00;100760.06;5188141;28;20052;-67
2021/01/19 10:43:15;;;;;;;4.07;2.13;;;;;;;7.63;100.00;100766.22;5179125;28;20022;-67
2021/01/19 10:45:46;;;;;;;6.13;2.55;;;;;;;7.68;100.00;100774.63;5177734;28;20534;-67
2021/01/19 10:48:20;;;;;;;3.63;1.83;;;;;;;7.61;100.00;100763.72;5186217;28;20032;-67
2021/01/19 10:50:50;;;;;;;8.13;4.47;;;;;;;7.67;100.00;100770.28;5200284;28;20036;-67
2021/01/19 10:53:27;;;;;;;6.18;3.67;;;;;;;7.73;100.00;100756.34;5191178;28;20029;-67
2021/01/19 10:55:58;;;;;;;6.18;1.73;;;;;;;7.77;100.00;100768.41;5185793;28;20033;-67
2021/01/19 10:58:28;;;;;;;3.95;1.60;;;;;;;7.75;100.00;100759.72;5204307;28;20062;-67
2021/01/19 11:00:59;;;;;;;2.55;1.60;;;;;;;7.74;100.00;100769.56;5199806;28;20034;-67
2021/01/19 11:03:29;;;;;;;4.38;1.58;;;;;;;7.78;100.00;100775.41;5183157;28;20492;-67
2021/01/19 11:06:00;;;;;;;5.10;1.92;;;;;;;7.82;100.00;100749.25;5189568;28;20024;-67
2021/01/19 11:08:30;;;;;;;4.60;1.67;;;;;;;7.89;100.00;100764.53;5190505;28;20021;-67
2021/01/19 11:11:02;;;;;;;2.35;1.60;;;;;;;7.88;100.00;100760.19;5183677;28;20480;-67
2021/01/19 11:13:32;;;;;;;3.47;1.63;;;;;;;7.94;100.00;100772.13;5182802;28;20037;-67
2021/01/19 11:16:03;;;;;;;1.85;1.45;;;;;;;7.95;100.00;100771.94;5183944;28;20388;-67
2021/01/19 11:18:36;;;;;;;3.22;1.98;;;;;;;8.05;100.00;100770.03;5184234;28;20029;-67
2021/01/19 11:21:07;;;;;;;7.07;2.20;;;;;;;8.07;100.00;100766.38;5203990;28;20053;-67
2021/01/19 11:23:38;;;;;;;5.70;1.77;;;;;;;8.08;100.00;100770.72;5193010;28;20132;-67
2021/01/19 11:26:08;;;;;;;6.45;4.22;;;;;;;8.11;100.00;100775.78;5176781;28;20014;-67
2021/01/19 11:28:40;;;;;;;2.67;1.85;;;;;;;8.15;100.00;100771.81;5182918;28;20499;-67
2021/01/19 11:31:11;;;;;;;2.33;1.92;;;;;;;8.16;100.00;100768.16;5184340;28;20041;-68
2021/01/19 11:33:41;;;;;;;3.05;1.70;;;;;;;8.17;100.00;100767.16;5182155;28;20133;-67
2021/01/19 11:36:25;;;;;;;3.25;1.77;;;;;;;8.13;100.00;100769.28;5182759;28;20022;-68
2021/01/19 11:38:57;;;;;;;4.07;1.88;;;;;;;8.11;100.00;100763.25;5171087;28;20022;-67
2021/01/19 11:41:28;;;;;;;3.15;2.10;;;;;;;8.13;100.00;100765.75;5178326;28;20022;-67
2021/01/19 11:43:58;;;;;;;3.90;2.20;;;;;;;8.10;100.00;100768.75;5175843;28;20147;-67
2021/01/19 11:46:30;;;;;;;3.88;1.77;;;;;;;8.14;100.00;100773.66;5184260;28;20022;-67
2021/01/19 11:49:03;;;;;;;2.20;1.83;;;;;;;8.07;100.00;100764.53;5183500;28;20033;-67
2021/01/19 11:51:36;;;;;;;2.60;1.83;;;;;;;8.07;100.00;100769.06;5193292;28;20029;-66